Lake Elsinore, California
Current Conditions -  °F | °C
As of 3:55 PM on Sunday 23 Nov 2014 (Local Time) from KF70 Reporting Station
Clear Clear  
Wind Chill: 70°   Ceiling: Unl
Heat Index: 70°   Visibility: 10mi
Dew Point:   Wind: 13mph
Humidity: 9%   Direction: 140°SE
Pressure: 30.1"   Gusts: NA
Location:  33.67°N, 117.32°W
Report Text: KF70 232355Z AUTO 14011KT 10SM CLR 21/M14 A3010 RMK AO1
Loading
Personal Weather Stations






























Interactive Weather Map New forecast layout! Learn more

10-Day Weather Forecast

Advertisements
Track Severe Weather on mobile